Time;durP1;ratioP1;P1;durP2;ratioP2;P2;SDS_P1;SDS_P2;PMS_P1;PMS_P2;Temp;Humidity;BMP_temperature;BMP_pressure;BME280_temperature;BME280_humidity;BME280_pressure;Samples;Min_cycle;Max_cycle;Signal;HPM_P1;HPM_P2
2021/09/19 00:01:24;;;;;;;12.65;10.73;;;16.30;87.20;;;;;;5044913;28;20048;-60
2021/09/19 00:03:51;;;;;;;12.05;10.75;;;16.20;87.40;;;;;;5044199;28;20539;-60
2021/09/19 00:06:18;;;;;;;14.45;10.27;;;16.20;87.50;;;;;;5044416;28;20053;-60
2021/09/19 00:08:45;;;;;;;15.93;11.10;;;16.20;87.80;;;;;;5042988;28;20053;-59
2021/09/19 00:11:12;;;;;;;13.35;10.70;;;16.10;88.00;;;;;;5034467;28;20102;-60
2021/09/19 00:13:39;;;;;;;14.15;11.30;;;16.10;88.50;;;;;;5043730;28;20088;-60
2021/09/19 00:16:05;;;;;;;13.02;11.68;;;16.00;88.10;;;;;;5060266;28;20076;-60
2021/09/19 00:18:32;;;;;;;12.95;10.57;;;16.00;88.60;;;;;;5030936;28;20053;-60
2021/09/19 00:20:59;;;;;;;16.58;11.70;;;16.00;88.40;;;;;;5060731;28;20557;-61
2021/09/19 00:23:26;;;;;;;16.77;12.25;;;16.00;88.30;;;;;;5063833;28;20106;-60
2021/09/19 00:25:52;;;;;;;15.15;11.93;;;16.00;88.30;;;;;;5050684;28;20136;-60
2021/09/19 00:28:19;;;;;;;11.68;10.48;;;16.00;88.70;;;;;;5044696;28;20100;-60
2021/09/19 00:30:46;;;;;;;15.85;12.27;;;16.00;88.80;;;;;;5043763;28;20088;-60
2021/09/19 00:33:13;;;;;;;13.55;11.80;;;15.90;88.90;;;;;;5043472;28;20488;-60
2021/09/19 00:35:39;;;;;;;15.57;11.20;;;15.80;89.30;;;;;;5043925;28;20073;-60
2021/09/19 00:38:06;;;;;;;15.07;12.77;;;15.80;89.50;;;;;;5044048;28;20080;-60
2021/09/19 00:40:33;;;;;;;13.65;11.48;;;15.90;89.40;;;;;;5043872;28;20131;-60
2021/09/19 00:43:00;;;;;;;12.85;11.50;;;15.90;89.50;;;;;;5043908;28;20083;-60
2021/09/19 00:45:26;;;;;;;15.50;12.18;;;15.90;89.40;;;;;;5052086;28;20131;-60
2021/09/19 00:47:53;;;;;;;14.30;12.30;;;15.90;89.10;;;;;;5042880;28;20147;-60
2021/09/19 00:50:22;;;;;;;15.07;10.73;;;16.00;89.50;;;;;;5026221;28;20052;-60
2021/09/19 00:52:49;;;;;;;12.88;10.43;;;16.00;89.50;;;;;;5043411;28;20122;-60
2021/09/19 00:55:16;;;;;;;16.45;10.50;;;16.00;89.00;;;;;;5031194;28;20131;-60
2021/09/19 00:57:45;;;;;;;12.35;10.32;;;16.00;89.40;;;;;;5042577;28;20509;-60
2021/09/19 01:00:13;;;;;;;11.73;10.63;;;16.00;89.60;;;;;;5024570;28;20135;-60
2021/09/19 01:02:40;;;;;;;14.15;10.23;;;16.00;89.60;;;;;;5024399;28;20048;-60
2021/09/19 01:05:08;;;;;;;15.05;10.43;;;15.90;89.90;;;;;;5024623;28;20103;-60
2021/09/19 01:07:35;;;;;;;14.85;11.98;;;15.90;90.00;;;;;;5041349;28;20065;-61
2021/09/19 01:10:02;;;;;;;13.07;10.82;;;16.00;89.90;;;;;;5038957;28;20111;-60
2021/09/19 01:12:29;;;;;;;15.10;11.07;;;16.00;89.90;;;;;;5041956;28;20164;-60
2021/09/19 01:14:56;;;;;;;12.85;10.32;;;16.00;90.00;;;;;;5041666;28;20135;-60
2021/09/19 01:17:23;;;;;;;12.77;10.68;;;16.00;89.70;;;;;;5023427;28;20119;-60
2021/09/19 01:19:50;;;;;;;14.93;11.45;;;16.00;89.70;;;;;;5042037;28;20555;-60
2021/09/19 01:22:17;;;;;;;12.20;10.07;;;16.00;90.10;;;;;;5024028;28;20136;-60
2021/09/19 01:24:44;;;;;;;12.77;11.57;;;16.00;90.20;;;;;;5040756;28;20916;-60
2021/09/19 01:27:11;;;;;;;13.40;11.38;;;16.00;89.70;;;;;;5042107;28;20079;-60
2021/09/19 01:29:38;;;;;;;14.77;11.35;;;16.00;90.00;;;;;;5041823;28;20122;-60
2021/09/19 01:32:05;;;;;;;14.45;11.65;;;16.00;90.00;;;;;;5041138;28;20073;-60
2021/09/19 01:34:32;;;;;;;12.65;11.35;;;16.00;90.00;;;;;;5042520;28;20504;-60
2021/09/19 01:36:59;;;;;;;14.88;11.48;;;16.00;90.00;;;;;;5044075;28;20087;-61
2021/09/19 01:39:25;;;;;;;14.07;12.13;;;15.90;90.10;;;;;;5043971;28;20658;-60
2021/09/19 01:41:52;;;;;;;14.98;11.35;;;15.90;90.00;;;;;;5044806;28;20551;-60
2021/09/19 01:44:19;;;;;;;16.50;13.95;;;15.80;90.10;;;;;;5044015;28;20106;-60
2021/09/19 01:46:46;;;;;;;18.55;12.45;;;15.80;90.50;;;;;;5044490;28;20087;-60
2021/09/19 01:49:12;;;;;;;16.10;12.77;;;15.90;90.10;;;;;;5044939;28;20638;-60
2021/09/19 01:51:39;;;;;;;17.33;14.15;;;15.90;90.30;;;;;;5027115;28;20099;-60
2021/09/19 01:54:06;;;;;;;14.07;12.57;;;15.80;90.40;;;;;;5025615;28;20132;-60
2021/09/19 01:56:33;;;;;;;17.73;13.38;;;15.80;90.50;;;;;;5044295;28;20159;-60
2021/09/19 01:58:59;;;;;;;15.02;13.07;;;15.80;90.40;;;;;;5044319;28;20084;-60
2021/09/19 02:01:26;;;;;;;17.40;12.70;;;15.80;90.40;;;;;;5044272;28;20393;-60
2021/09/19 02:03:53;;;;;;;17.35;13.27;;;15.80;90.30;;;;;;5044121;28;20484;-60
2021/09/19 02:06:20;;;;;;;19.45;12.98;;;15.80;90.30;;;;;;5044359;28;20077;-60
2021/09/19 02:08:47;;;;;;;14.90;13.20;;;15.80;90.40;;;;;;5025867;28;20080;-60
2021/09/19 02:11:14;;;;;;;16.45;13.68;;;15.70;90.40;;;;;;5044563;28;20891;-60
2021/09/19 02:13:41;;;;;;;22.48;13.85;;;15.70;90.60;;;;;;5043741;28;20152;-60
2021/09/19 02:16:08;;;;;;;17.25;15.10;;;15.70;90.50;;;;;;5044335;28;20102;-60
2021/09/19 02:18:35;;;;;;;17.02;13.85;;;15.70;90.50;;;;;;5043910;28;20431;-60
2021/09/19 02:21:03;;;;;;;16.58;13.70;;;15.60;90.60;;;;;;5044165;28;20134;-60
2021/09/19 02:23:29;;;;;;;19.75;14.00;;;15.60;90.60;;;;;;5042839;28;20079;-60
2021/09/19 02:25:56;;;;;;;15.23;13.35;;;15.60;90.60;;;;;;5043801;28;20488;-60
2021/09/19 02:28:23;;;;;;;16.00;14.38;;;15.60;90.50;;;;;;5042385;28;20119;-60
2021/09/19 02:30:51;;;;;;;16.50;14.13;;;15.50;90.60;;;;;;5044418;28;20139;-60
2021/09/19 02:33:18;;;;;;;17.90;14.07;;;15.50;90.70;;;;;;5043794;28;20095;-60
2021/09/19 02:35:45;;;;;;;20.13;14.85;;;15.40;90.80;;;;;;5044325;28;20087;-60
2021/09/19 02:38:12;;;;;;;15.82;14.13;;;15.40;90.80;;;;;;5026023;28;20136;-60
2021/09/19 02:40:38;;;;;;;16.48;14.85;;;15.40;90.90;;;;;;5043865;28;20127;-60
2021/09/19 02:43:05;;;;;;;18.60;15.45;;;15.30;91.10;;;;;;5043674;28;20136;-61
2021/09/19 02:45:32;;;;;;;21.95;14.05;;;15.30;91.00;;;;;;5044158;28;20127;-60
2021/09/19 02:47:59;;;;;;;19.77;15.32;;;15.30;91.10;;;;;;5044040;28;20045;-61
2021/09/19 02:50:26;;;;;;;17.95;15.23;;;15.20;90.90;;;;;;5043814;28;20083;-60
2021/09/19 02:52:53;;;;;;;17.38;14.77;;;15.20;90.90;;;;;;5043801;28;20068;-60
2021/09/19 02:55:20;;;;;;;16.80;15.00;;;15.20;91.10;;;;;;5043013;28;20128;-60
2021/09/19 02:57:47;;;;;;;16.95;15.00;;;15.10;91.10;;;;;;5043309;28;20136;-60
2021/09/19 03:00:16;;;;;;;22.63;16.05;;;15.10;91.10;;;;;;5042326;28;20152;-60
2021/09/19 03:02:43;;;;;;;17.80;15.52;;;15.00;91.60;;;;;;5030994;28;20080;-61
2021/09/19 03:05:10;;;;;;;20.30;15.57;;;14.90;91.50;;;;;;5063786;28;20049;-60
2021/09/19 03:07:37;;;;;;;18.52;16.65;;;14.90;91.40;;;;;;5046698;28;20068;-61
2021/09/19 03:10:05;;;;;;;19.88;16.58;;;14.90;91.40;;;;;;5042885;28;20508;-59
2021/09/19 03:12:32;;;;;;;21.02;16.75;;;14.90;91.50;;;;;;5043910;28;20118;-60
2021/09/19 03:14:58;;;;;;;18.30;16.25;;;14.90;91.40;;;;;;5033221;28;20085;-60
2021/09/19 03:17:25;;;;;;;19.45;16.95;;;14.80;91.50;;;;;;5043910;28;20117;-60
2021/09/19 03:19:52;;;;;;;21.20;17.52;;;14.80;91.30;;;;;;5046244;28;20183;-60
2021/09/19 03:22:19;;;;;;;20.55;17.95;;;14.80;91.50;;;;;;5047648;28;20080;-60
2021/09/19 03:24:45;;;;;;;22.35;17.73;;;14.80;91.60;;;;;;5046505;28;20076;-60
2021/09/19 03:27:12;;;;;;;18.50;16.58;;;14.70;91.50;;;;;;5046646;28;20594;-60
2021/09/19 03:29:39;;;;;;;21.30;17.95;;;14.70;91.80;;;;;;5047124;28;20747;-60
2021/09/19 03:32:06;;;;;;;18.77;16.73;;;14.70;91.80;;;;;;5046905;28;20567;-60
2021/09/19 03:34:35;;;;;;;21.13;18.90;;;14.60;91.80;;;;;;5045552;28;20148;-60
2021/09/19 03:37:02;;;;;;;19.83;17.55;;;14.70;91.90;;;;;;5047023;28;20132;-60
2021/09/19 03:39:29;;;;;;;22.08;17.70;;;14.60;91.70;;;;;;5046690;28;20053;-60
2021/09/19 03:41:56;;;;;;;19.88;17.05;;;14.60;91.60;;;;;;5047109;28;20063;-60
2021/09/19 03:44:22;;;;;;;21.25;17.58;;;14.60;91.90;;;;;;5046181;28;20080;-60
2021/09/19 03:46:49;;;;;;;21.08;16.42;;;14.60;91.50;;;;;;5046317;28;20087;-60
2021/09/19 03:49:16;;;;;;;21.55;16.27;;;14.60;91.60;;;;;;5046685;28;20041;-60
2021/09/19 03:51:43;;;;;;;18.60;15.00;;;14.50;91.50;;;;;;5047613;28;20106;-60
2021/09/19 03:54:09;;;;;;;17.45;15.45;;;14.50;91.50;;;;;;5044185;28;20130;-60
2021/09/19 03:56:36;;;;;;;17.95;16.02;;;14.50;91.50;;;;;;5032996;28;20136;-60
2021/09/19 03:59:03;;;;;;;19.25;15.30;;;14.50;91.60;;;;;;5046820;28;20135;-60
2021/09/19 04:01:29;;;;;;;17.90;15.32;;;14.50;91.60;;;;;;5046214;28;20578;-60
2021/09/19 04:03:57;;;;;;;18.45;14.73;;;14.50;91.60;;;;;;5046655;28;20045;-60
2021/09/19 04:06:23;;;;;;;23.40;17.20;;;14.50;91.70;;;;;;5047263;28;20083;-60
2021/09/19 04:08:50;;;;;;;19.15;16.05;;;14.60;92.10;;;;;;5045495;28;20103;-60
2021/09/19 04:11:17;;;;;;;17.25;14.77;;;14.60;91.90;;;;;;5046572;28;20080;-60
2021/09/19 04:13:44;;;;;;;21.27;17.15;;;14.70;91.90;;;;;;5046331;28;20118;-60
2021/09/19 04:16:10;;;;;;;19.33;16.00;;;14.70;91.90;;;;;;5046518;28;20049;-60
2021/09/19 04:18:37;;;;;;;18.08;15.75;;;14.80;91.80;;;;;;5044657;28;20504;-60
2021/09/19 04:21:04;;;;;;;17.65;14.93;;;14.80;91.70;;;;;;5046386;28;20126;-60
2021/09/19 04:23:31;;;;;;;17.92;14.77;;;14.80;91.80;;;;;;5045587;28;20093;-60
2021/09/19 04:25:57;;;;;;;17.75;15.68;;;14.80;91.80;;;;;;5046294;28;20085;-61
2021/09/19 04:28:24;;;;;;;16.67;14.73;;;14.80;91.80;;;;;;5041540;28;20137;-60
2021/09/19 04:30:51;;;;;;;16.58;14.48;;;14.80;91.60;;;;;;5042564;28;20087;-60
2021/09/19 04:33:17;;;;;;;17.85;15.00;;;14.80;91.60;;;;;;5041880;28;20132;-60
2021/09/19 04:35:44;;;;;;;20.17;15.52;;;14.70;91.60;;;;;;5043259;28;20052;-59
2021/09/19 04:38:13;;;;;;;22.48;15.90;;;14.70;91.70;;;;;;5042610;28;20064;-60
2021/09/19 04:40:40;;;;;;;22.27;15.95;;;14.70;91.80;;;;;;5022169;28;20555;-59
2021/09/19 04:43:11;;;;;;;18.60;15.85;;;14.70;91.70;;;;;;5044429;28;20041;-59
2021/09/19 04:45:39;;;;;;;17.23;15.05;;;14.70;91.60;;;;;;5041931;28;20523;-60
2021/09/19 04:48:06;;;;;;;17.90;15.20;;;14.70;91.70;;;;;;5041081;28;20113;-59
2021/09/19 04:50:32;;;;;;;19.98;15.73;;;14.70;91.60;;;;;;5042753;28;20124;-59
2021/09/19 04:52:59;;;;;;;17.98;15.13;;;14.60;91.70;;;;;;5041631;28;20085;-60
2021/09/19 04:55:26;;;;;;;16.83;14.88;;;14.70;91.80;;;;;;5024438;28;20123;-60
2021/09/19 04:57:52;;;;;;;17.65;15.75;;;14.70;91.60;;;;;;5043356;28;20095;-60
2021/09/19 05:00:19;;;;;;;17.67;14.82;;;14.70;91.70;;;;;;5042787;28;20534;-59
2021/09/19 05:02:46;;;;;;;16.20;14.45;;;14.60;91.70;;;;;;5042707;28;20045;-59
2021/09/19 05:05:13;;;;;;;17.00;14.77;;;14.60;91.90;;;;;;5042997;28;20060;-59
2021/09/19 05:07:40;;;;;;;18.65;15.57;;;14.60;92.00;;;;;;5041902;28;20468;-59
2021/09/19 05:10:07;;;;;;;17.00;14.63;;;14.70;92.00;;;;;;5042546;28;20544;-59
2021/09/19 05:12:34;;;;;;;18.88;15.40;;;14.70;92.10;;;;;;5042963;28;20087;-60
2021/09/19 05:15:01;;;;;;;18.10;15.27;;;14.70;92.10;;;;;;5042514;28;20085;-60
2021/09/19 05:17:28;;;;;;;17.50;14.85;;;14.70;92.20;;;;;;5003829;28;20573;-60
2021/09/19 05:19:54;;;;;;;17.13;14.35;;;14.70;92.10;;;;;;5037286;28;20073;-60
2021/09/19 05:22:21;;;;;;;22.08;14.45;;;14.70;92.10;;;;;;5043468;28;20463;-59
2021/09/19 05:24:48;;;;;;;16.02;14.02;;;14.80;92.20;;;;;;5041552;28;20449;-60
2021/09/19 05:27:14;;;;;;;19.65;14.60;;;14.80;92.20;;;;;;5042485;28;20072;-60
2021/09/19 05:29:41;;;;;;;17.00;13.93;;;14.80;92.10;;;;;;5042328;28;20124;-59
2021/09/19 05:32:08;;;;;;;18.60;13.52;;;14.80;92.00;;;;;;5041987;28;20734;-60
2021/09/19 05:34:35;;;;;;;17.67;14.53;;;14.90;92.00;;;;;;5041862;28;20124;-60
2021/09/19 05:37:02;;;;;;;15.68;13.93;;;14.90;91.80;;;;;;5042737;28;20128;-60
2021/09/19 05:39:29;;;;;;;17.48;14.43;;;14.90;91.90;;;;;;5042118;28;20134;-59
2021/09/19 05:41:55;;;;;;;18.58;14.90;;;14.90;91.80;;;;;;5042352;28;20134;-59
2021/09/19 05:44:22;;;;;;;15.75;13.85;;;15.00;91.90;;;;;;5023863;28;20547;-60
2021/09/19 05:46:49;;;;;;;16.95;14.43;;;14.90;91.90;;;;;;5046041;28;20128;-60
2021/09/19 05:49:15;;;;;;;15.40;13.80;;;15.00;91.90;;;;;;5042046;28;20053;-60
2021/09/19 05:51:42;;;;;;;19.10;14.43;;;15.00;91.90;;;;;;5024928;28;20991;-59
2021/09/19 05:54:09;;;;;;;17.80;13.75;;;15.00;91.90;;;;;;5041833;28;20132;-60
2021/09/19 05:56:36;;;;;;;22.58;15.52;;;15.00;92.00;;;;;;5030607;28;20164;-60
2021/09/19 05:59:02;;;;;;;16.90;14.60;;;15.00;91.90;;;;;;5030922;28;20044;-59
2021/09/19 06:01:29;;;;;;;18.17;15.05;;;15.00;91.90;;;;;;5041490;28;20476;-59
2021/09/19 06:03:56;;;;;;;17.88;15.23;;;15.10;92.00;;;;;;5042447;28;20048;-60
2021/09/19 06:06:23;;;;;;;17.88;14.00;;;15.10;91.90;;;;;;5042823;28;20140;-59
2021/09/19 06:08:50;;;;;;;16.40;14.13;;;15.10;91.90;;;;;;5041215;28;20056;-60
2021/09/19 06:11:17;;;;;;;15.88;14.15;;;15.10;91.80;;;;;;5042404;28;20860;-60
2021/09/19 06:13:44;;;;;;;19.25;15.05;;;15.20;91.80;;;;;;5040972;28;20638;-59
2021/09/19 06:16:11;;;;;;;15.30;13.32;;;15.20;91.60;;;;;;5041735;28;20464;-60
2021/09/19 06:18:38;;;;;;;16.35;13.25;;;15.20;91.60;;;;;;5041376;28;20114;-59
2021/09/19 06:21:05;;;;;;;16.13;13.73;;;15.20;91.70;;;;;;5040549;28;20080;-60
2021/09/19 06:23:32;;;;;;;18.38;14.05;;;15.20;91.70;;;;;;5029653;28;20045;-60
2021/09/19 06:25:59;;;;;;;16.55;14.23;;;15.30;91.60;;;;;;5041924;28;20095;-60
2021/09/19 06:28:26;;;;;;;15.93;14.23;;;15.30;91.60;;;;;;5023617;28;20094;-60
2021/09/19 06:30:52;;;;;;;16.13;13.40;;;15.30;91.60;;;;;;5041554;28;20127;-60
2021/09/19 06:33:19;;;;;;;17.67;14.15;;;15.30;91.70;;;;;;5040879;28;20377;-59
2021/09/19 06:35:46;;;;;;;15.70;13.32;;;15.30;91.70;;;;;;5041516;28;20136;-60
2021/09/19 06:38:13;;;;;;;15.90;14.30;;;15.30;91.60;;;;;;5041462;28;20519;-60
2021/09/19 06:40:40;;;;;;;16.50;14.65;;;15.40;91.60;;;;;;5040512;28;20127;-59
2021/09/19 06:43:07;;;;;;;19.88;14.55;;;15.40;91.70;;;;;;5041255;28;20124;-59
2021/09/19 06:45:34;;;;;;;20.45;16.15;;;15.40;91.70;;;;;;5042441;28;20551;-60
2021/09/19 06:48:01;;;;;;;21.45;15.50;;;15.40;91.70;;;;;;5040805;28;20053;-60
2021/09/19 06:50:27;;;;;;;17.73;15.85;;;15.40;91.90;;;;;;5041883;28;20080;-59
2021/09/19 06:52:54;;;;;;;19.13;16.27;;;15.30;91.90;;;;;;5041647;28;20143;-60
2021/09/19 06:55:21;;;;;;;20.85;15.40;;;15.30;92.00;;;;;;5025754;28;20452;-60
2021/09/19 06:57:54;;;;;;;18.52;16.48;;;15.40;92.00;;;;;;5045530;28;20102;-59
2021/09/19 07:00:21;;;;;;;17.50;15.70;;;15.50;92.10;;;;;;5055292;28;20045;-60
2021/09/19 07:02:47;;;;;;;22.55;16.17;;;15.50;91.80;;;;;;5027169;28;20053;-60
2021/09/19 07:05:14;;;;;;;20.00;15.90;;;15.60;91.80;;;;;;5045213;28;20084;-60
2021/09/19 07:07:41;;;;;;;19.52;17.27;;;15.60;91.80;;;;;;5045803;28;20053;-59
2021/09/19 07:10:08;;;;;;;21.90;16.98;;;15.60;91.60;;;;;;5044166;28;20079;-60
2021/09/19 07:12:35;;;;;;;18.58;16.13;;;15.70;91.60;;;;;;5045421;28;20142;-60
2021/09/19 07:15:04;;;;;;;19.63;16.85;;;15.70;91.50;;;;;;5044324;28;20102;-60
2021/09/19 07:17:31;;;;;;;20.38;17.23;;;15.70;91.50;;;;;;5044277;28;20127;-60
2021/09/19 07:19:59;;;;;;;18.27;16.38;;;15.70;91.60;;;;;;5044869;28;20133;-61
2021/09/19 07:22:27;;;;;;;19.67;17.67;;;15.80;91.50;;;;;;5043698;28;20088;-60
2021/09/19 07:24:54;;;;;;;18.55;16.50;;;15.90;91.30;;;;;;5010676;28;20128;-60
2021/09/19 07:27:20;;;;;;;20.75;18.20;;;15.90;91.20;;;;;;5065610;28;20083;-60
2021/09/19 07:29:47;;;;;;;19.80;17.85;;;16.00;91.10;;;;;;5060754;28;20127;-60
2021/09/19 07:32:14;;;;;;;18.95;17.05;;;16.10;91.10;;;;;;5025905;28;20136;-60
2021/09/19 07:34:41;;;;;;;19.83;17.48;;;16.20;91.10;;;;;;5044688;28;20078;-59
2021/09/19 07:37:08;;;;;;;18.02;16.15;;;16.30;91.00;;;;;;5027195;28;20077;-60
2021/09/19 07:39:35;;;;;;;21.50;16.77;;;16.40;90.90;;;;;;5025856;28;20084;-61
2021/09/19 07:42:02;;;;;;;19.77;16.77;;;16.50;90.90;;;;;;5039349;28;20168;-60
2021/09/19 07:44:29;;;;;;;18.20;16.30;;;16.60;90.60;;;;;;5044477;28;20128;-60
2021/09/19 07:46:56;;;;;;;19.90;16.65;;;16.70;90.60;;;;;;5044564;28;20902;-60
2021/09/19 07:49:23;;;;;;;23.08;16.77;;;16.80;90.40;;;;;;5044660;28;20156;-60
2021/09/19 07:51:50;;;;;;;19.33;16.83;;;16.90;90.20;;;;;;5044765;28;20049;-61
2021/09/19 07:54:18;;;;;;;19.52;17.52;;;17.00;90.10;;;;;;5043882;28;20725;-61
2021/09/19 07:56:45;;;;;;;19.27;16.80;;;17.10;90.00;;;;;;5026703;28;20049;-61
2021/09/19 07:59:12;;;;;;;19.42;17.42;;;17.20;89.90;;;;;;5043462;28;20128;-60
2021/09/19 08:01:39;;;;;;;18.77;16.70;;;17.30;89.50;;;;;;5043633;28;20140;-61
2021/09/19 08:04:06;;;;;;;20.70;17.92;;;17.40;89.10;;;;;;5044280;28;20055;-60
2021/09/19 08:06:33;;;;;;;19.55;16.92;;;17.40;88.70;;;;;;5043825;28;20049;-60
2021/09/19 08:09:00;;;;;;;19.50;17.55;;;17.50;88.50;;;;;;5043491;28;20146;-60
2021/09/19 08:11:27;;;;;;;18.13;16.27;;;17.60;88.40;;;;;;5043752;28;20060;-60
2021/09/19 08:13:57;;;;;;;19.10;17.27;;;17.70;88.00;;;;;;5041848;28;20041;-60
2021/09/19 08:16:24;;;;;;;18.75;15.88;;;17.80;88.30;;;;;;5046995;28;20049;-60
2021/09/19 08:18:51;;;;;;;19.90;17.70;;;17.90;87.50;;;;;;5043367;28;20122;-60
2021/09/19 08:21:17;;;;;;;20.77;18.67;;;18.00;86.80;;;;;;5044327;28;20119;-60
2021/09/19 08:23:44;;;;;;;20.08;17.65;;;18.00;86.50;;;;;;5053509;28;20102;-60
2021/09/19 08:26:11;;;;;;;18.83;16.25;;;18.10;86.30;;;;;;5050151;28;20090;-61
2021/09/19 08:28:37;;;;;;;18.83;16.83;;;18.10;86.50;;;;;;5042638;28;20575;-60
2021/09/19 08:31:04;;;;;;;19.80;17.67;;;18.20;86.30;;;;;;5041777;28;20124;-61
2021/09/19 08:33:31;;;;;;;20.90;18.83;;;18.20;86.30;;;;;;5040131;28;20107;-60
2021/09/19 08:35:59;;;;;;;22.33;19.17;;;18.20;86.20;;;;;;5041896;28;20080;-60
2021/09/19 08:38:26;;;;;;;20.30;18.25;;;18.20;85.90;;;;;;5040030;28;20392;-61
2021/09/19 08:40:53;;;;;;;20.58;17.85;;;18.10;86.20;;;;;;5041390;28;20136;-60
2021/09/19 08:43:20;;;;;;;21.63;19.33;;;18.00;86.70;;;;;;5040264;28;20049;-60
2021/09/19 08:45:48;;;;;;;23.42;20.92;;;18.00;87.00;;;;;;5049631;28;20527;-61
2021/09/19 08:48:19;;;;;;;28.80;20.75;;;18.00;86.80;;;;;;5055667;28;20049;-60
2021/09/19 08:50:48;;;;;;;22.90;20.42;;;18.00;86.50;;;;;;5040671;28;20156;-60
2021/09/19 08:53:14;;;;;;;26.80;22.73;;;18.00;87.00;;;;;;5040195;28;20081;-60
2021/09/19 08:55:44;;;;;;;24.83;22.02;;;18.10;86.90;;;;;;5040475;28;20127;-61
2021/09/19 08:58:12;;;;;;;24.83;22.23;;;18.20;86.90;;;;;;5039773;28;20088;-60
2021/09/19 09:00:49;;;;;;;26.60;22.95;;;18.20;87.10;;;;;;5040168;28;20404;-60
2021/09/19 09:03:22;;;;;;;25.80;22.80;;;18.30;86.40;;;;;;5039572;28;20566;-60
2021/09/19 09:05:54;;;;;;;25.05;22.38;;;18.30;86.90;;;;;;5040113;28;20055;-60
2021/09/19 09:08:21;;;;;;;26.13;23.38;;;18.30;86.20;;;;;;5027220;28;20568;-60
2021/09/19 09:10:49;;;;;;;26.23;23.42;;;18.30;85.90;;;;;;5040509;28;20148;-59
2021/09/19 09:13:20;;;;;;;27.73;22.85;;;18.30;85.90;;;;;;5039561;28;20574;-60
2021/09/19 09:15:48;;;;;;;26.92;24.02;;;18.40;85.70;;;;;;5040675;28;20077;-60
2021/09/19 09:18:30;;;;;;;25.80;22.92;;;18.40;85.90;;;;;;5038205;28;20151;-60
2021/09/19 09:21:12;;;;;;;30.38;23.63;;;18.50;85.60;;;;;;5013837;28;20128;-60
2021/09/19 09:23:39;;;;;;;27.52;23.95;;;18.60;85.70;;;;;;5038292;28;20080;-60
2021/09/19 09:26:15;;;;;;;32.05;24.30;;;18.60;85.20;;;;;;5040686;28;20144;-60
2021/09/19 09:28:54;;;;;;;27.10;24.20;;;18.60;84.90;;;;;;5038197;28;20091;-60
2021/09/19 09:31:24;;;;;;;28.13;23.95;;;18.70;85.00;;;;;;5037640;28;20136;-60
2021/09/19 09:34:13;;;;;;;27.23;24.38;;;18.80;84.40;;;;;;5039575;28;20111;-60
2021/09/19 09:36:52;;;;;;;31.73;25.95;;;18.80;84.20;;;;;;5035755;28;20136;-60
2021/09/19 09:39:28;;;;;;;28.40;25.00;;;18.80;84.50;;;;;;5038897;28;20098;-60
2021/09/19 09:42:17;;;;;;;29.73;24.77;;;18.90;84.00;;;;;;5039371;28;20088;-60
2021/09/19 09:44:49;;;;;;;28.17;25.27;;;18.90;83.80;;;;;;5039054;28;20085;-60
2021/09/19 09:47:17;;;;;;;31.92;26.77;;;19.00;84.20;;;;;;5039536;28;20055;-60
2021/09/19 09:49:48;;;;;;;27.35;24.27;;;19.00;84.00;;;;;;5039788;28;20088;-60
2021/09/19 09:52:18;;;;;;;27.85;24.85;;;19.00;83.80;;;;;;5038394;28;20084;-59
2021/09/19 09:54:45;;;;;;;31.55;26.77;;;19.10;84.10;;;;;;5019089;28;20079;-60
2021/09/19 09:57:13;;;;;;;30.80;27.52;;;19.20;83.00;;;;;;5038424;28;20222;-60
2021/09/19 09:59:42;;;;;;;29.95;26.65;;;19.30;83.20;;;;;;5021010;28;20679;-60
2021/09/19 10:02:10;;;;;;;31.42;27.05;;;19.40;83.00;;;;;;5021096;28;20138;-59
2021/09/19 10:04:37;;;;;;;32.58;26.70;;;19.50;82.50;;;;;;5037769;28;20120;-59
2021/09/19 10:07:03;;;;;;;31.38;26.38;;;19.60;82.50;;;;;;5020793;28;20080;-59
2021/09/19 10:09:30;;;;;;;29.13;25.85;;;19.80;82.80;;;;;;5028989;28;20051;-60
2021/09/19 10:11:57;;;;;;;29.88;26.13;;;20.00;82.30;;;;;;5048462;28;20095;-59
2021/09/19 10:14:24;;;;;;;29.75;26.55;;;20.10;81.40;;;;;;5020710;28;20120;-60
2021/09/19 10:16:51;;;;;;;29.63;26.13;;;20.10;81.30;;;;;;5019246;28;20748;-60
2021/09/19 10:19:20;;;;;;;30.85;27.27;;;20.20;80.80;;;;;;5020151;28;20132;-60
2021/09/19 10:21:47;;;;;;;31.00;27.30;;;20.30;80.50;;;;;;5021463;28;20622;-60
2021/09/19 10:24:15;;;;;;;28.55;25.38;;;20.40;80.00;;;;;;5037883;28;20140;-60
2021/09/19 10:26:52;;;;;;;30.23;26.50;;;20.50;80.00;;;;;;5021353;28;21011;-60
2021/09/19 10:29:20;;;;;;;37.30;29.85;;;20.60;78.70;;;;;;5041611;28;20519;-60
2021/09/19 10:31:47;;;;;;;31.90;28.50;;;20.70;80.10;;;;;;5025243;28;20123;-61
2021/09/19 10:34:25;;;;;;;31.83;28.42;;;20.70;79.30;;;;;;5042734;28;20164;-60
2021/09/19 10:36:53;;;;;;;32.92;29.38;;;20.80;77.00;;;;;;5042707;28;20737;-60
2021/09/19 10:39:29;;;;;;;32.95;28.75;;;20.90;78.40;;;;;;5024177;28;20141;-60
2021/09/19 10:42:28;;;;;;;32.58;27.85;;;21.10;76.90;;;;;;5024493;28;20508;-60
2021/09/19 10:44:56;;;;;;;33.08;28.48;;;21.20;76.50;;;;;;5045418;28;20079;-61
2021/09/19 10:47:57;;;;;;;32.83;27.88;;;21.20;77.10;;;;;;5049658;28;20110;-60
2021/09/19 10:50:36;;;;;;;31.88;28.35;;;21.30;75.20;;;;;;5037925;28;20069;-60
2021/09/19 10:53:26;;;;;;;29.33;26.15;;;21.50;75.80;;;;;;5041291;28;20052;-60
2021/09/19 10:56:00;;;;;;;31.65;26.45;;;21.70;72.90;;;;;;5041982;28;20057;-61
2021/09/19 10:58:33;;;;;;;29.05;25.77;;;21.60;73.90;;;;;;5041584;28;20397;-60
2021/09/19 11:01:14;;;;;;;33.10;27.40;;;21.70;74.10;;;;;;5024570;28;20498;-61
2021/09/19 11:03:45;;;;;;;32.35;28.58;;;21.80;72.90;;;;;;5041976;28;20162;-60
2021/09/19 11:06:41;;;;;;;29.95;26.10;;;22.00;73.90;;;;;;5053274;28;20056;-60
2021/09/19 11:09:27;;;;;;;29.85;26.67;;;22.00;71.60;;;;;;5014468;28;20053;-60
2021/09/19 11:12:06;;;;;;;28.52;24.92;;;22.00;71.80;;;;;;5042102;28;20080;-60
2021/09/19 11:14:58;;;;;;;31.13;27.80;;;22.10;71.80;;;;;;5041280;28;20165;-61
2021/09/19 11:17:26;;;;;;;31.30;27.90;;;22.20;71.10;;;;;;5041347;28;20666;-60
2021/09/19 11:20:13;;;;;;;31.02;27.75;;;22.10;73.40;;;;;;5024089;28;20120;-60
2021/09/19 11:22:44;;;;;;;33.08;29.35;;;22.10;70.90;;;;;;5023890;28;20587;-60
2021/09/19 11:25:12;;;;;;;35.63;30.05;;;22.10;72.90;;;;;;5039957;28;20075;-60
2021/09/19 11:27:41;;;;;;;32.40;28.58;;;22.30;73.40;;;;;;5041843;28;20130;-61
2021/09/19 11:30:08;;;;;;;39.72;29.02;;;22.40;72.30;;;;;;5042600;28;20053;-61
2021/09/19 11:32:36;;;;;;;33.63;27.63;;;22.50;71.90;;;;;;5041378;28;20084;-61
2021/09/19 11:35:03;;;;;;;30.42;26.70;;;22.40;71.30;;;;;;5039129;28;20132;-60
2021/09/19 11:37:30;;;;;;;31.98;26.58;;;22.30;71.50;;;;;;5041303;28;20504;-61
2021/09/19 11:39:58;;;;;;;30.08;26.88;;;22.30;70.90;;;;;;5040470;28;20550;-61
2021/09/19 11:42:25;;;;;;;33.63;27.10;;;22.30;71.70;;;;;;5040344;28;20076;-60
2021/09/19 11:44:52;;;;;;;27.02;24.13;;;22.20;71.30;;;;;;5022879;28;20044;-62
2021/09/19 11:47:20;;;;;;;28.13;24.23;;;22.20;71.30;;;;;;5038212;28;20045;-61
2021/09/19 11:49:50;;;;;;;27.35;23.85;;;22.10;71.00;;;;;;5040545;28;20144;-61
2021/09/19 11:52:16;;;;;;;25.65;22.67;;;22.10;71.50;;;;;;5023806;28;20624;-60
2021/09/19 11:54:44;;;;;;;27.25;24.33;;;22.00;71.40;;;;;;5044394;28;20115;-61
2021/09/19 11:57:11;;;;;;;30.17;25.15;;;22.00;71.40;;;;;;5041579;28;20171;-60
2021/09/19 11:59:45;;;;;;;26.90;23.25;;;22.00;71.30;;;;;;5041279;28;20080;-60
2021/09/19 12:02:12;;;;;;;32.28;24.83;;;22.00;71.70;;;;;;5040439;28;20084;-59
2021/09/19 12:04:43;;;;;;;21.83;19.50;;;22.00;72.00;;;;;;5041344;28;20063;-60
2021/09/19 12:07:14;;;;;;;17.00;15.23;;;21.90;72.90;;;;;;5035860;28;20071;-60
2021/09/19 12:09:42;;;;;;;15.82;12.63;;;21.80;74.00;;;;;;5036732;28;20563;-60
2021/09/19 12:12:13;;;;;;;12.88;10.15;;;21.60;74.70;;;;;;5044707;28;20111;-60
2021/09/19 12:14:43;;;;;;;10.15;8.63;;;21.30;75.40;;;;;;5040907;28;20149;-60
2021/09/19 12:17:14;;;;;;;8.13;7.32;;;21.10;76.60;;;;;;5020557;28;20119;-59
2021/09/19 12:19:45;;;;;;;8.35;7.13;;;21.00;77.40;;;;;;5040744;28;20096;-60
2021/09/19 12:22:17;;;;;;;8.98;7.82;;;20.80;78.00;;;;;;5040133;28;20049;-60
2021/09/19 12:24:44;;;;;;;8.30;7.30;;;20.60;79.30;;;;;;5022499;28;20140;-61
2021/09/19 12:27:12;;;;;;;10.27;8.07;;;20.50;79.60;;;;;;5038699;28;20531;-60
2021/09/19 12:29:40;;;;;;;9.85;8.55;;;20.40;80.00;;;;;;5040149;28;20767;-60
2021/09/19 12:32:07;;;;;;;10.63;8.52;;;20.20;80.60;;;;;;5022794;28;20399;-61
2021/09/19 12:34:34;;;;;;;10.05;7.93;;;20.10;81.60;;;;;;5022166;28;20121;-60